sensor_id;sensor_type;location;lat;lon;timestamp;P1;durP1;ratioP1;P2;durP2;ratioP2
31760;SDS011;18335;51.486;7.562;2022-07-10T00:00:09;3.40;;;1.08;;
31760;SDS011;18335;51.486;7.562;2022-07-10T00:02:38;6.32;;;1.40;;
31760;SDS011;18335;51.486;7.562;2022-07-10T00:05:05;6.07;;;1.40;;
31760;SDS011;18335;51.486;7.562;2022-07-10T00:07:34;12.85;;;1.77;;
31760;SDS011;18335;51.486;7.562;2022-07-10T00:10:01;6.55;;;1.20;;
31760;SDS011;18335;51.486;7.562;2022-07-10T00:12:28;5.68;;;1.08;;
31760;SDS011;18335;51.486;7.562;2022-07-10T00:14:56;3.97;;;1.40;;
31760;SDS011;18335;51.486;7.562;2022-07-10T00:17:23;6.38;;;1.20;;
31760;SDS011;18335;51.486;7.562;2022-07-10T00:19:50;7.22;;;1.55;;
31760;SDS011;18335;51.486;7.562;2022-07-10T00:22:16;5.35;;;1.25;;
31760;SDS011;18335;51.486;7.562;2022-07-10T00:24:43;7.55;;;1.40;;
31760;SDS011;18335;51.486;7.562;2022-07-10T00:27:10;6.03;;;1.27;;
31760;SDS011;18335;51.486;7.562;2022-07-10T00:29:37;6.53;;;1.27;;
31760;SDS011;18335;51.486;7.562;2022-07-10T00:32:06;7.15;;;1.30;;
31760;SDS011;18335;51.486;7.562;2022-07-10T00:34:33;9.38;;;1.67;;
31760;SDS011;18335;51.486;7.562;2022-07-10T00:37:00;6.82;;;1.58;;
31760;SDS011;18335;51.486;7.562;2022-07-10T00:39:27;8.32;;;1.30;;
31760;SDS011;18335;51.486;7.562;2022-07-10T00:41:54;8.02;;;1.23;;
31760;SDS011;18335;51.486;7.562;2022-07-10T00:44:20;8.45;;;1.10;;
31760;SDS011;18335;51.486;7.562;2022-07-10T00:46:47;9.25;;;1.90;;
31760;SDS011;18335;51.486;7.562;2022-07-10T00:49:15;6.10;;;1.08;;
31760;SDS011;18335;51.486;7.562;2022-07-10T00:51:42;5.45;;;2.10;;
31760;SDS011;18335;51.486;7.562;2022-07-10T00:54:10;7.45;;;1.35;;
31760;SDS011;18335;51.486;7.562;2022-07-10T00:56:36;8.38;;;1.35;;
31760;SDS011;18335;51.486;7.562;2022-07-10T00:59:03;7.18;;;1.50;;
31760;SDS011;18335;51.486;7.562;2022-07-10T01:01:31;9.68;;;1.27;;
31760;SDS011;18335;51.486;7.562;2022-07-10T01:03:59;6.43;;;1.13;;
31760;SDS011;18335;51.486;7.562;2022-07-10T01:06:27;6.25;;;1.73;;
31760;SDS011;18335;51.486;7.562;2022-07-10T01:08:53;5.70;;;1.20;;
31760;SDS011;18335;51.486;7.562;2022-07-10T01:11:20;4.65;;;1.27;;
31760;SDS011;18335;51.486;7.562;2022-07-10T01:13:47;10.43;;;2.20;;
31760;SDS011;18335;51.486;7.562;2022-07-10T01:16:14;9.88;;;1.70;;
31760;SDS011;18335;51.486;7.562;2022-07-10T01:18:41;5.93;;;1.30;;
31760;SDS011;18335;51.486;7.562;2022-07-10T01:24:04;9.38;;;2.67;;
31760;SDS011;18335;51.486;7.562;2022-07-10T01:26:32;3.63;;;0.70;;
31760;SDS011;18335;51.486;7.562;2022-07-10T01:29:02;8.75;;;1.80;;
31760;SDS011;18335;51.486;7.562;2022-07-10T01:31:30;6.13;;;2.17;;
31760;SDS011;18335;51.486;7.562;2022-07-10T01:33:57;4.80;;;0.98;;
31760;SDS011;18335;51.486;7.562;2022-07-10T01:36:27;10.10;;;1.17;;
31760;SDS011;18335;51.486;7.562;2022-07-10T01:38:55;7.35;;;0.93;;
31760;SDS011;18335;51.486;7.562;2022-07-10T01:41:24;8.05;;;1.30;;
31760;SDS011;18335;51.486;7.562;2022-07-10T01:43:52;10.23;;;1.55;;
31760;SDS011;18335;51.486;7.562;2022-07-10T01:46:19;7.80;;;1.50;;
31760;SDS011;18335;51.486;7.562;2022-07-10T01:48:46;4.20;;;1.35;;
31760;SDS011;18335;51.486;7.562;2022-07-10T01:51:13;7.78;;;1.40;;
31760;SDS011;18335;51.486;7.562;2022-07-10T01:53:40;11.43;;;1.77;;
31760;SDS011;18335;51.486;7.562;2022-07-10T01:56:07;7.07;;;1.98;;
31760;SDS011;18335;51.486;7.562;2022-07-10T01:58:37;9.93;;;3.05;;
31760;SDS011;18335;51.486;7.562;2022-07-10T02:01:04;5.60;;;1.05;;
31760;SDS011;18335;51.486;7.562;2022-07-10T02:03:31;7.75;;;1.30;;
31760;SDS011;18335;51.486;7.562;2022-07-10T02:06:16;9.77;;;1.38;;
31760;SDS011;18335;51.486;7.562;2022-07-10T02:08:42;7.22;;;1.40;;
31760;SDS011;18335;51.486;7.562;2022-07-10T02:11:09;10.80;;;1.40;;
31760;SDS011;18335;51.486;7.562;2022-07-10T02:13:38;9.07;;;1.65;;
31760;SDS011;18335;51.486;7.562;2022-07-10T02:16:05;10.23;;;1.58;;
31760;SDS011;18335;51.486;7.562;2022-07-10T02:18:32;6.57;;;1.40;;
31760;SDS011;18335;51.486;7.562;2022-07-10T02:20:59;9.70;;;2.42;;
31760;SDS011;18335;51.486;7.562;2022-07-10T02:23:26;7.47;;;2.03;;
31760;SDS011;18335;51.486;7.562;2022-07-10T02:25:53;6.45;;;1.55;;
31760;SDS011;18335;51.486;7.562;2022-07-10T02:28:20;5.03;;;1.10;;
31760;SDS011;18335;51.486;7.562;2022-07-10T02:30:48;12.23;;;2.97;;
31760;SDS011;18335;51.486;7.562;2022-07-10T02:33:14;8.30;;;2.30;;
31760;SDS011;18335;51.486;7.562;2022-07-10T02:35:41;4.88;;;1.10;;
31760;SDS011;18335;51.486;7.562;2022-07-10T02:38:08;8.05;;;1.77;;
31760;SDS011;18335;51.486;7.562;2022-07-10T02:40:34;6.25;;;1.50;;
31760;SDS011;18335;51.486;7.562;2022-07-10T02:43:01;9.48;;;1.75;;
31760;SDS011;18335;51.486;7.562;2022-07-10T02:45:28;8.02;;;1.10;;
31760;SDS011;18335;51.486;7.562;2022-07-10T02:47:56;15.02;;;5.13;;
31760;SDS011;18335;51.486;7.562;2022-07-10T02:50:22;12.90;;;3.70;;
31760;SDS011;18335;51.486;7.562;2022-07-10T02:52:49;7.28;;;2.15;;
31760;SDS011;18335;51.486;7.562;2022-07-10T02:55:16;11.02;;;4.15;;
31760;SDS011;18335;51.486;7.562;2022-07-10T02:57:43;10.27;;;1.95;;
31760;SDS011;18335;51.486;7.562;2022-07-10T03:00:09;13.68;;;5.35;;
31760;SDS011;18335;51.486;7.562;2022-07-10T03:02:37;7.55;;;2.03;;
31760;SDS011;18335;51.486;7.562;2022-07-10T03:05:06;11.05;;;5.03;;
31760;SDS011;18335;51.486;7.562;2022-07-10T03:07:33;8.45;;;2.42;;
31760;SDS011;18335;51.486;7.562;2022-07-10T03:10:00;12.48;;;2.97;;
31760;SDS011;18335;51.486;7.562;2022-07-10T03:12:27;10.23;;;2.05;;
31760;SDS011;18335;51.486;7.562;2022-07-10T03:14:54;10.35;;;2.00;;
31760;SDS011;18335;51.486;7.562;2022-07-10T03:17:20;8.77;;;1.58;;
31760;SDS011;18335;51.486;7.562;2022-07-10T03:19:47;8.15;;;1.60;;
31760;SDS011;18335;51.486;7.562;2022-07-10T03:22:15;8.75;;;1.60;;
31760;SDS011;18335;51.486;7.562;2022-07-10T03:24:42;9.23;;;1.73;;
31760;SDS011;18335;51.486;7.562;2022-07-10T03:27:12;5.78;;;1.20;;
31760;SDS011;18335;51.486;7.562;2022-07-10T03:29:38;8.80;;;1.60;;
31760;SDS011;18335;51.486;7.562;2022-07-10T03:32:06;7.47;;;1.60;;
31760;SDS011;18335;51.486;7.562;2022-07-10T03:34:33;10.07;;;2.78;;
31760;SDS011;18335;51.486;7.562;2022-07-10T03:37:00;8.18;;;1.83;;
31760;SDS011;18335;51.486;7.562;2022-07-10T03:39:28;10.40;;;1.48;;
31760;SDS011;18335;51.486;7.562;2022-07-10T03:41:55;8.80;;;1.63;;
31760;SDS011;18335;51.486;7.562;2022-07-10T03:44:21;8.15;;;2.15;;
31760;SDS011;18335;51.486;7.562;2022-07-10T03:46:48;9.20;;;1.40;;
31760;SDS011;18335;51.486;7.562;2022-07-10T03:49:15;10.02;;;2.05;;
31760;SDS011;18335;51.486;7.562;2022-07-10T03:51:41;6.05;;;1.10;;
31760;SDS011;18335;51.486;7.562;2022-07-10T03:54:08;8.15;;;1.77;;
31760;SDS011;18335;51.486;7.562;2022-07-10T03:56:36;7.40;;;1.45;;
31760;SDS011;18335;51.486;7.562;2022-07-10T03:59:21;6.30;;;1.50;;
31760;SDS011;18335;51.486;7.562;2022-07-10T04:01:48;9.23;;;1.90;;
31760;SDS011;18335;51.486;7.562;2022-07-10T04:04:14;5.70;;;1.45;;
31760;SDS011;18335;51.486;7.562;2022-07-10T04:06:41;8.27;;;1.58;;
31760;SDS011;18335;51.486;7.562;2022-07-10T04:09:07;8.32;;;3.28;;
31760;SDS011;18335;51.486;7.562;2022-07-10T04:11:34;5.70;;;1.20;;
31760;SDS011;18335;51.486;7.562;2022-07-10T04:14:02;9.00;;;1.58;;
31760;SDS011;18335;51.486;7.562;2022-07-10T04:16:29;5.25;;;1.40;;
31760;SDS011;18335;51.486;7.562;2022-07-10T04:18:55;17.08;;;2.03;;
31760;SDS011;18335;51.486;7.562;2022-07-10T04:21:22;8.10;;;1.60;;
31760;SDS011;18335;51.486;7.562;2022-07-10T04:23:49;12.20;;;2.55;;
31760;SDS011;18335;51.486;7.562;2022-07-10T04:26:15;8.70;;;2.40;;
31760;SDS011;18335;51.486;7.562;2022-07-10T04:28:42;8.70;;;2.10;;
31760;SDS011;18335;51.486;7.562;2022-07-10T04:31:10;10.32;;;2.25;;
31760;SDS011;18335;51.486;7.562;2022-07-10T04:33:37;13.02;;;1.75;;
31760;SDS011;18335;51.486;7.562;2022-07-10T04:36:04;10.25;;;1.80;;
31760;SDS011;18335;51.486;7.562;2022-07-10T04:38:31;11.45;;;2.10;;
31760;SDS011;18335;51.486;7.562;2022-07-10T04:40:58;6.68;;;1.77;;
31760;SDS011;18335;51.486;7.562;2022-07-10T04:43:25;8.73;;;1.35;;
31760;SDS011;18335;51.486;7.562;2022-07-10T04:45:51;7.05;;;1.73;;
31760;SDS011;18335;51.486;7.562;2022-07-10T04:48:19;7.20;;;1.90;;
31760;SDS011;18335;51.486;7.562;2022-07-10T04:50:46;10.15;;;2.40;;
31760;SDS011;18335;51.486;7.562;2022-07-10T04:53:13;8.80;;;1.48;;
31760;SDS011;18335;51.486;7.562;2022-07-10T04:55:39;7.65;;;1.50;;
31760;SDS011;18335;51.486;7.562;2022-07-10T04:58:06;8.70;;;2.00;;
31760;SDS011;18335;51.486;7.562;2022-07-10T05:00:33;9.95;;;1.60;;
31760;SDS011;18335;51.486;7.562;2022-07-10T05:05:34;4.22;;;1.30;;
31760;SDS011;18335;51.486;7.562;2022-07-10T05:08:01;9.50;;;1.75;;
31760;SDS011;18335;51.486;7.562;2022-07-10T05:10:28;10.35;;;1.70;;
31760;SDS011;18335;51.486;7.562;2022-07-10T05:12:55;8.05;;;1.50;;
31760;SDS011;18335;51.486;7.562;2022-07-10T05:15:22;7.53;;;1.60;;
31760;SDS011;18335;51.486;7.562;2022-07-10T05:17:49;9.93;;;1.42;;
31760;SDS011;18335;51.486;7.562;2022-07-10T05:20:15;11.20;;;2.05;;
31760;SDS011;18335;51.486;7.562;2022-07-10T05:22:43;8.27;;;1.60;;
31760;SDS011;18335;51.486;7.562;2022-07-10T05:25:10;9.20;;;1.48;;
31760;SDS011;18335;51.486;7.562;2022-07-10T05:27:37;9.95;;;1.50;;
31760;SDS011;18335;51.486;7.562;2022-07-10T05:30:03;5.80;;;1.30;;
31760;SDS011;18335;51.486;7.562;2022-07-10T05:32:31;7.25;;;1.50;;
31760;SDS011;18335;51.486;7.562;2022-07-10T05:34:58;6.57;;;1.35;;
31760;SDS011;18335;51.486;7.562;2022-07-10T05:37:25;12.90;;;2.78;;
31760;SDS011;18335;51.486;7.562;2022-07-10T05:39:53;6.43;;;1.50;;
31760;SDS011;18335;51.486;7.562;2022-07-10T05:42:19;13.80;;;2.65;;
31760;SDS011;18335;51.486;7.562;2022-07-10T05:44:46;12.13;;;1.75;;
31760;SDS011;18335;51.486;7.562;2022-07-10T05:47:13;10.82;;;1.92;;
31760;SDS011;18335;51.486;7.562;2022-07-10T05:49:39;8.07;;;1.70;;
31760;SDS011;18335;51.486;7.562;2022-07-10T05:52:06;8.30;;;1.50;;
31760;SDS011;18335;51.486;7.562;2022-07-10T05:54:33;8.27;;;1.50;;
31760;SDS011;18335;51.486;7.562;2022-07-10T05:57:01;10.88;;;1.52;;
31760;SDS011;18335;51.486;7.562;2022-07-10T05:59:27;10.77;;;1.52;;
31760;SDS011;18335;51.486;7.562;2022-07-10T06:01:54;8.65;;;1.50;;
31760;SDS011;18335;51.486;7.562;2022-07-10T06:04:21;7.05;;;1.70;;
31760;SDS011;18335;51.486;7.562;2022-07-10T06:06:47;10.05;;;1.20;;
31760;SDS011;18335;51.486;7.562;2022-07-10T06:09:14;8.25;;;1.58;;
31760;SDS011;18335;51.486;7.562;2022-07-10T06:11:41;10.07;;;1.50;;
31760;SDS011;18335;51.486;7.562;2022-07-10T06:14:10;10.18;;;1.50;;
31760;SDS011;18335;51.486;7.562;2022-07-10T06:16:37;9.68;;;1.23;;
31760;SDS011;18335;51.486;7.562;2022-07-10T06:19:04;6.45;;;1.27;;
31760;SDS011;18335;51.486;7.562;2022-07-10T06:21:30;6.88;;;1.20;;
31760;SDS011;18335;51.486;7.562;2022-07-10T06:23:57;10.85;;;1.83;;
31760;SDS011;18335;51.486;7.562;2022-07-10T06:26:24;7.18;;;1.33;;
31760;SDS011;18335;51.486;7.562;2022-07-10T06:28:51;5.82;;;1.50;;
31760;SDS011;18335;51.486;7.562;2022-07-10T06:31:19;9.85;;;1.65;;
31760;SDS011;18335;51.486;7.562;2022-07-10T06:33:46;12.13;;;1.85;;
31760;SDS011;18335;51.486;7.562;2022-07-10T06:36:13;7.43;;;1.23;;
31760;SDS011;18335;51.486;7.562;2022-07-10T06:38:39;9.68;;;1.98;;
31760;SDS011;18335;51.486;7.562;2022-07-10T06:41:06;9.00;;;1.80;;
31760;SDS011;18335;51.486;7.562;2022-07-10T06:43:33;9.68;;;1.73;;
31760;SDS011;18335;51.486;7.562;2022-07-10T06:46:00;6.75;;;1.17;;
31760;SDS011;18335;51.486;7.562;2022-07-10T06:48:29;9.00;;;1.42;;
31760;SDS011;18335;51.486;7.562;2022-07-10T06:50:54;6.63;;;1.10;;
31760;SDS011;18335;51.486;7.562;2022-07-10T06:53:21;8.75;;;1.38;;
31760;SDS011;18335;51.486;7.562;2022-07-10T06:55:51;6.70;;;1.40;;
31760;SDS011;18335;51.486;7.562;2022-07-10T06:58:18;8.52;;;1.15;;
31760;SDS011;18335;51.486;7.562;2022-07-10T07:00:44;8.63;;;1.25;;
31760;SDS011;18335;51.486;7.562;2022-07-10T07:03:11;4.90;;;1.13;;
31760;SDS011;18335;51.486;7.562;2022-07-10T07:05:39;11.18;;;1.42;;
31760;SDS011;18335;51.486;7.562;2022-07-10T07:08:06;23.27;;;2.35;;
31760;SDS011;18335;51.486;7.562;2022-07-10T07:10:32;10.38;;;1.52;;
31760;SDS011;18335;51.486;7.562;2022-07-10T07:12:59;11.80;;;1.50;;
31760;SDS011;18335;51.486;7.562;2022-07-10T07:15:28;10.35;;;1.50;;
31760;SDS011;18335;51.486;7.562;2022-07-10T07:17:54;11.40;;;1.58;;
31760;SDS011;18335;51.486;7.562;2022-07-10T07:20:33;13.63;;;1.70;;
31760;SDS011;18335;51.486;7.562;2022-07-10T07:23:19;7.07;;;1.35;;
31760;SDS011;18335;51.486;7.562;2022-07-10T07:25:47;9.48;;;1.45;;
31760;SDS011;18335;51.486;7.562;2022-07-10T07:28:14;7.93;;;1.02;;
31760;SDS011;18335;51.486;7.562;2022-07-10T07:30:42;8.60;;;1.70;;
31760;SDS011;18335;51.486;7.562;2022-07-10T07:33:09;15.55;;;1.60;;
31760;SDS011;18335;51.486;7.562;2022-07-10T07:35:36;14.38;;;1.65;;
31760;SDS011;18335;51.486;7.562;2022-07-10T07:38:03;6.05;;;1.52;;
31760;SDS011;18335;51.486;7.562;2022-07-10T07:40:32;13.02;;;2.45;;
31760;SDS011;18335;51.486;7.562;2022-07-10T07:42:59;9.00;;;1.23;;
31760;SDS011;18335;51.486;7.562;2022-07-10T07:45:26;8.35;;;1.25;;
31760;SDS011;18335;51.486;7.562;2022-07-10T07:47:54;7.13;;;1.10;;
31760;SDS011;18335;51.486;7.562;2022-07-10T07:50:21;9.35;;;1.70;;
31760;SDS011;18335;51.486;7.562;2022-07-10T07:52:50;12.30;;;1.40;;
31760;SDS011;18335;51.486;7.562;2022-07-10T07:55:18;9.38;;;1.35;;
31760;SDS011;18335;51.486;7.562;2022-07-10T07:57:47;8.77;;;1.73;;
31760;SDS011;18335;51.486;7.562;2022-07-10T08:00:15;8.70;;;1.48;;
31760;SDS011;18335;51.486;7.562;2022-07-10T08:02:43;9.20;;;1.48;;
31760;SDS011;18335;51.486;7.562;2022-07-10T08:05:10;11.45;;;1.58;;
31760;SDS011;18335;51.486;7.562;2022-07-10T08:07:37;10.18;;;1.58;;
31760;SDS011;18335;51.486;7.562;2022-07-10T08:10:05;9.70;;;1.30;;
31760;SDS011;18335;51.486;7.562;2022-07-10T08:12:34;8.23;;;1.50;;
31760;SDS011;18335;51.486;7.562;2022-07-10T08:15:02;12.20;;;1.48;;
31760;SDS011;18335;51.486;7.562;2022-07-10T08:17:29;4.85;;;1.20;;
31760;SDS011;18335;51.486;7.562;2022-07-10T08:19:56;9.88;;;1.30;;
31760;SDS011;18335;51.486;7.562;2022-07-10T08:22:22;8.85;;;1.35;;
31760;SDS011;18335;51.486;7.562;2022-07-10T08:24:49;9.52;;;1.35;;
31760;SDS011;18335;51.486;7.562;2022-07-10T08:27:16;7.18;;;2.03;;
31760;SDS011;18335;51.486;7.562;2022-07-10T08:29:42;10.23;;;1.30;;
31760;SDS011;18335;51.486;7.562;2022-07-10T08:32:11;8.00;;;1.20;;
31760;SDS011;18335;51.486;7.562;2022-07-10T08:34:37;9.18;;;1.08;;
31760;SDS011;18335;51.486;7.562;2022-07-10T08:37:04;5.32;;;1.25;;
31760;SDS011;18335;51.486;7.562;2022-07-10T08:39:32;8.50;;;1.60;;
31760;SDS011;18335;51.486;7.562;2022-07-10T08:41:59;10.52;;;1.88;;
31760;SDS011;18335;51.486;7.562;2022-07-10T08:44:26;11.43;;;1.23;;
31760;SDS011;18335;51.486;7.562;2022-07-10T08:46:54;7.13;;;1.08;;
31760;SDS011;18335;51.486;7.562;2022-07-10T08:49:23;12.57;;;1.70;;
31760;SDS011;18335;51.486;7.562;2022-07-10T08:51:53;7.55;;;1.40;;
31760;SDS011;18335;51.486;7.562;2022-07-10T08:54:24;5.50;;;0.70;;
31760;SDS011;18335;51.486;7.562;2022-07-10T08:56:53;6.32;;;1.27;;
31760;SDS011;18335;51.486;7.562;2022-07-10T08:59:22;5.43;;;1.17;;
31760;SDS011;18335;51.486;7.562;2022-07-10T09:01:49;7.10;;;1.33;;
31760;SDS011;18335;51.486;7.562;2022-07-10T09:04:16;13.48;;;1.50;;
31760;SDS011;18335;51.486;7.562;2022-07-10T09:06:45;8.85;;;1.25;;
31760;SDS011;18335;51.486;7.562;2022-07-10T09:09:12;10.07;;;1.42;;
31760;SDS011;18335;51.486;7.562;2022-07-10T09:11:39;8.52;;;1.75;;
31760;SDS011;18335;51.486;7.562;2022-07-10T09:14:08;11.05;;;1.60;;
31760;SDS011;18335;51.486;7.562;2022-07-10T09:16:37;9.82;;;1.52;;
31760;SDS011;18335;51.486;7.562;2022-07-10T09:19:14;9.80;;;1.60;;
31760;SDS011;18335;51.486;7.562;2022-07-10T09:21:42;9.50;;;1.80;;
31760;SDS011;18335;51.486;7.562;2022-07-10T09:24:11;9.05;;;1.98;;
31760;SDS011;18335;51.486;7.562;2022-07-10T09:26:39;9.18;;;1.90;;
31760;SDS011;18335;51.486;7.562;2022-07-10T09:29:08;9.07;;;1.63;;
31760;SDS011;18335;51.486;7.562;2022-07-10T09:31:49;11.18;;;1.80;;
31760;SDS011;18335;51.486;7.562;2022-07-10T09:34:17;10.90;;;2.05;;
31760;SDS011;18335;51.486;7.562;2022-07-10T09:36:43;9.15;;;1.85;;
31760;SDS011;18335;51.486;7.562;2022-07-10T09:39:11;10.23;;;2.40;;
31760;SDS011;18335;51.486;7.562;2022-07-10T09:41:38;6.93;;;1.88;;
31760;SDS011;18335;51.486;7.562;2022-07-10T09:44:05;6.50;;;1.90;;
31760;SDS011;18335;51.486;7.562;2022-07-10T09:46:33;7.15;;;1.80;;
31760;SDS011;18335;51.486;7.562;2022-07-10T09:49:05;10.93;;;2.15;;
31760;SDS011;18335;51.486;7.562;2022-07-10T09:51:34;7.22;;;1.70;;
31760;SDS011;18335;51.486;7.562;2022-07-10T09:54:02;9.57;;;1.88;;
31760;SDS011;18335;51.486;7.562;2022-07-10T09:56:35;9.02;;;2.15;;
31760;SDS011;18335;51.486;7.562;2022-07-10T09:59:08;6.80;;;1.67;;
31760;SDS011;18335;51.486;7.562;2022-07-10T10:01:36;8.15;;;1.65;;
31760;SDS011;18335;51.486;7.562;2022-07-10T10:04:04;7.25;;;2.08;;
31760;SDS011;18335;51.486;7.562;2022-07-10T10:06:31;9.80;;;2.00;;
31760;SDS011;18335;51.486;7.562;2022-07-10T10:09:03;7.60;;;1.80;;
31760;SDS011;18335;51.486;7.562;2022-07-10T10:11:32;8.60;;;1.58;;
31760;SDS011;18335;51.486;7.562;2022-07-10T10:14:02;5.80;;;1.40;;
31760;SDS011;18335;51.486;7.562;2022-07-10T10:16:29;4.53;;;1.30;;
31760;SDS011;18335;51.486;7.562;2022-07-10T10:18:57;8.52;;;2.05;;
31760;SDS011;18335;51.486;7.562;2022-07-10T10:21:43;4.82;;;1.17;;
31760;SDS011;18335;51.486;7.562;2022-07-10T10:24:10;8.25;;;1.70;;
31760;SDS011;18335;51.486;7.562;2022-07-10T10:26:39;8.68;;;1.95;;
31760;SDS011;18335;51.486;7.562;2022-07-10T10:29:07;7.45;;;1.88;;
31760;SDS011;18335;51.486;7.562;2022-07-10T10:31:35;5.95;;;1.70;;
31760;SDS011;18335;51.486;7.562;2022-07-10T10:34:03;5.95;;;1.85;;
31760;SDS011;18335;51.486;7.562;2022-07-10T10:36:43;7.07;;;2.10;;
31760;SDS011;18335;51.486;7.562;2022-07-10T10:39:11;4.03;;;1.73;;
31760;SDS011;18335;51.486;7.562;2022-07-10T10:41:41;6.53;;;1.83;;
31760;SDS011;18335;51.486;7.562;2022-07-10T10:44:21;6.70;;;2.05;;
31760;SDS011;18335;51.486;7.562;2022-07-10T10:47:04;6.13;;;1.83;;
31760;SDS011;18335;51.486;7.562;2022-07-10T10:52:30;7.38;;;1.40;;
31760;SDS011;18335;51.486;7.562;2022-07-10T10:55:03;6.82;;;1.98;;
31760;SDS011;18335;51.486;7.562;2022-07-10T10:57:38;6.90;;;1.83;;
31760;SDS011;18335;51.486;7.562;2022-07-10T11:03:15;4.95;;;2.00;;
31760;SDS011;18335;51.486;7.562;2022-07-10T11:05:44;6.68;;;2.33;;
31760;SDS011;18335;51.486;7.562;2022-07-10T11:08:12;4.18;;;1.95;;
31760;SDS011;18335;51.486;7.562;2022-07-10T11:10:42;6.32;;;2.10;;
31760;SDS011;18335;51.486;7.562;2022-07-10T11:13:12;4.60;;;2.30;;
31760;SDS011;18335;51.486;7.562;2022-07-10T11:15:40;6.63;;;2.67;;
31760;SDS011;18335;51.486;7.562;2022-07-10T11:18:09;4.97;;;2.38;;
31760;SDS011;18335;51.486;7.562;2022-07-10T11:20:38;6.25;;;2.80;;
31760;SDS011;18335;51.486;7.562;2022-07-10T11:25:59;6.88;;;2.88;;
31760;SDS011;18335;51.486;7.562;2022-07-10T11:31:26;7.50;;;3.08;;
31760;SDS011;18335;51.486;7.562;2022-07-10T11:33:56;7.57;;;3.50;;
31760;SDS011;18335;51.486;7.562;2022-07-10T11:36:24;8.45;;;4.45;;
31760;SDS011;18335;51.486;7.562;2022-07-10T11:38:57;7.55;;;3.75;;
31760;SDS011;18335;51.486;7.562;2022-07-10T11:41:25;5.70;;;2.92;;
31760;SDS011;18335;51.486;7.562;2022-07-10T11:43:53;7.15;;;3.20;;
31760;SDS011;18335;51.486;7.562;2022-07-10T11:46:22;7.03;;;2.75;;
31760;SDS011;18335;51.486;7.562;2022-07-10T11:48:50;7.70;;;3.15;;
31760;SDS011;18335;51.486;7.562;2022-07-10T11:51:19;7.90;;;3.17;;
31760;SDS011;18335;51.486;7.562;2022-07-10T11:53:58;10.40;;;3.30;;
31760;SDS011;18335;51.486;7.562;2022-07-10T11:56:26;20.92;;;4.97;;
31760;SDS011;18335;51.486;7.562;2022-07-10T11:58:55;12.32;;;3.53;;
31760;SDS011;18335;51.486;7.562;2022-07-10T12:01:24;9.88;;;4.05;;
31760;SDS011;18335;51.486;7.562;2022-07-10T12:03:58;11.07;;;3.42;;
31760;SDS011;18335;51.486;7.562;2022-07-10T12:06:26;8.90;;;4.60;;
31760;SDS011;18335;51.486;7.562;2022-07-10T12:08:54;8.50;;;5.03;;
31760;SDS011;18335;51.486;7.562;2022-07-10T12:11:21;8.60;;;4.82;;
31760;SDS011;18335;51.486;7.562;2022-07-10T12:13:49;12.10;;;5.18;;
31760;SDS011;18335;51.486;7.562;2022-07-10T12:16:19;11.13;;;5.80;;
31760;SDS011;18335;51.486;7.562;2022-07-10T12:18:48;9.40;;;5.50;;
31760;SDS011;18335;51.486;7.562;2022-07-10T12:21:15;8.90;;;5.63;;
31760;SDS011;18335;51.486;7.562;2022-07-10T12:23:43;9.63;;;5.25;;
31760;SDS011;18335;51.486;7.562;2022-07-10T12:26:14;9.77;;;5.55;;
31760;SDS011;18335;51.486;7.562;2022-07-10T12:31:24;10.52;;;5.97;;
31760;SDS011;18335;51.486;7.562;2022-07-10T12:33:55;7.63;;;5.10;;
31760;SDS011;18335;51.486;7.562;2022-07-10T12:36:26;9.05;;;5.55;;
31760;SDS011;18335;51.486;7.562;2022-07-10T12:39:07;9.00;;;5.32;;
31760;SDS011;18335;51.486;7.562;2022-07-10T12:41:34;11.70;;;5.55;;
31760;SDS011;18335;51.486;7.562;2022-07-10T12:44:00;7.30;;;4.35;;
31760;SDS011;18335;51.486;7.562;2022-07-10T12:46:28;10.40;;;5.82;;
31760;SDS011;18335;51.486;7.562;2022-07-10T12:49:02;11.57;;;6.50;;
31760;SDS011;18335;51.486;7.562;2022-07-10T12:51:31;10.57;;;5.18;;
31760;SDS011;18335;51.486;7.562;2022-07-10T12:53:59;10.32;;;7.13;;
31760;SDS011;18335;51.486;7.562;2022-07-10T12:56:26;10.80;;;6.00;;
31760;SDS011;18335;51.486;7.562;2022-07-10T12:58:54;11.02;;;6.45;;
31760;SDS011;18335;51.486;7.562;2022-07-10T13:01:21;9.68;;;6.13;;
31760;SDS011;18335;51.486;7.562;2022-07-10T13:03:47;13.02;;;5.90;;
31760;SDS011;18335;51.486;7.562;2022-07-10T13:06:26;8.55;;;5.60;;
31760;SDS011;18335;51.486;7.562;2022-07-10T13:08:54;8.25;;;4.57;;
31760;SDS011;18335;51.486;7.562;2022-07-10T13:11:21;7.22;;;3.63;;
31760;SDS011;18335;51.486;7.562;2022-07-10T13:13:47;6.05;;;3.22;;
31760;SDS011;18335;51.486;7.562;2022-07-10T13:16:14;6.45;;;3.30;;
31760;SDS011;18335;51.486;7.562;2022-07-10T13:18:42;4.40;;;2.50;;
31760;SDS011;18335;51.486;7.562;2022-07-10T13:21:09;3.50;;;1.95;;
31760;SDS011;18335;51.486;7.562;2022-07-10T13:23:37;2.55;;;1.67;;
31760;SDS011;18335;51.486;7.562;2022-07-10T13:26:05;3.03;;;1.63;;
31760;SDS011;18335;51.486;7.562;2022-07-10T13:28:33;3.28;;;1.38;;
31760;SDS011;18335;51.486;7.562;2022-07-10T13:30:59;1.70;;;0.95;;
31760;SDS011;18335;51.486;7.562;2022-07-10T13:33:26;1.73;;;0.90;;
31760;SDS011;18335;51.486;7.562;2022-07-10T13:35:53;1.55;;;0.70;;
31760;SDS011;18335;51.486;7.562;2022-07-10T13:38:20;2.47;;;0.90;;
31760;SDS011;18335;51.486;7.562;2022-07-10T13:40:49;1.40;;;0.70;;
31760;SDS011;18335;51.486;7.562;2022-07-10T13:43:16;0.95;;;0.60;;
31760;SDS011;18335;51.486;7.562;2022-07-10T13:45:45;1.23;;;0.50;;
31760;SDS011;18335;51.486;7.562;2022-07-10T13:48:12;3.92;;;0.70;;
31760;SDS011;18335;51.486;7.562;2022-07-10T13:50:41;1.65;;;0.80;;
31760;SDS011;18335;51.486;7.562;2022-07-10T13:53:09;4.68;;;1.10;;
31760;SDS011;18335;51.486;7.562;2022-07-10T13:55:36;3.80;;;1.17;;
31760;SDS011;18335;51.486;7.562;2022-07-10T13:58:04;4.10;;;0.98;;
31760;SDS011;18335;51.486;7.562;2022-07-10T14:00:31;3.88;;;1.90;;
31760;SDS011;18335;51.486;7.562;2022-07-10T14:02:58;2.83;;;1.30;;
31760;SDS011;18335;51.486;7.562;2022-07-10T14:05:26;5.53;;;2.13;;
31760;SDS011;18335;51.486;7.562;2022-07-10T14:07:52;4.95;;;1.10;;
31760;SDS011;18335;51.486;7.562;2022-07-10T14:10:19;4.68;;;1.50;;
31760;SDS011;18335;51.486;7.562;2022-07-10T14:12:46;3.33;;;0.90;;
31760;SDS011;18335;51.486;7.562;2022-07-10T14:15:14;4.65;;;1.10;;
31760;SDS011;18335;51.486;7.562;2022-07-10T14:17:41;4.78;;;1.55;;
31760;SDS011;18335;51.486;7.562;2022-07-10T14:20:09;2.88;;;1.20;;
31760;SDS011;18335;51.486;7.562;2022-07-10T14:22:36;3.40;;;1.05;;
31760;SDS011;18335;51.486;7.562;2022-07-10T14:25:03;3.40;;;1.05;;
31760;SDS011;18335;51.486;7.562;2022-07-10T14:27:31;4.00;;;1.27;;
31760;SDS011;18335;51.486;7.562;2022-07-10T14:29:58;2.95;;;1.30;;
31760;SDS011;18335;51.486;7.562;2022-07-10T14:32:26;2.00;;;1.20;;
31760;SDS011;18335;51.486;7.562;2022-07-10T14:34:53;2.85;;;1.38;;
31760;SDS011;18335;51.486;7.562;2022-07-10T14:37:20;3.05;;;1.20;;
31760;SDS011;18335;51.486;7.562;2022-07-10T14:39:47;2.85;;;1.00;;
31760;SDS011;18335;51.486;7.562;2022-07-10T14:42:14;3.20;;;1.23;;
31760;SDS011;18335;51.486;7.562;2022-07-10T14:44:41;7.97;;;2.58;;
31760;SDS011;18335;51.486;7.562;2022-07-10T14:47:08;5.65;;;1.70;;
31760;SDS011;18335;51.486;7.562;2022-07-10T14:49:36;3.97;;;1.15;;
31760;SDS011;18335;51.486;7.562;2022-07-10T14:52:03;4.03;;;1.40;;
31760;SDS011;18335;51.486;7.562;2022-07-10T14:54:30;3.65;;;1.50;;
31760;SDS011;18335;51.486;7.562;2022-07-10T14:56:57;4.47;;;1.50;;
31760;SDS011;18335;51.486;7.562;2022-07-10T14:59:23;5.70;;;1.73;;
31760;SDS011;18335;51.486;7.562;2022-07-10T15:01:50;5.22;;;1.50;;
31760;SDS011;18335;51.486;7.562;2022-07-10T15:04:17;5.78;;;2.28;;
31760;SDS011;18335;51.486;7.562;2022-07-10T15:06:45;5.38;;;1.70;;
31760;SDS011;18335;51.486;7.562;2022-07-10T15:09:12;2.63;;;1.13;;